Tropical Cyclones
[Index]
Main Index Home Page Stock Weather Photos Extreme Storms Discussion Storm News and Storm Chasing Reports Tropical Cyclones / Hurricanes / Typhoons Weather Data and Links Wild Fires / Bushfires Weather Observation Techniques Weather Picture Catalogue Tornado Pictures and Reports Stock Video Footage and DVDs for sale
Season 1966-1967 Tropical Cyclone LAURA Track Map
Season 1966-1967 Summaries: [BoM-AU] [JTWC-AU] [JTWC-SIO] [JTWC-SPAC] [JTWC-SH]
<<- Previous TC | BoM 1966-1967 Season | Next TC ->>

click for intensity scale information  Lat/long Grid: Show Hide

 Date Labels: Show Hide

Bureau of Meteorology Tropical Cyclone Data

Name: LAURA
Number: 422 / 196667_14

06 Apr 1967 01:00 UTC to 15 Apr 1967 01:00 UTC

    date/time    lat    long    hPa   cat  kts
1967-04-06 01   10.0    96.0   1003                     
1967-04-06 04   10.1    95.6   1003                     
1967-04-06 10   10.4    94.8   1003                     
1967-04-06 19   10.8    93.7   1002                     
1967-04-06 22   10.9    93.4   1002                     
1967-04-07 01   11.0    93.0   1001                     
1967-04-07 04   11.1    92.6   1000                     
1967-04-07 07   11.3    92.2    999                     
1967-04-07 10   11.4    91.8    997                     
1967-04-07 16   11.7    91.0    995    1                
1967-04-07 22   11.9    90.3    992    1                
1967-04-08 01   12.0    90.0    990    1                
1967-04-08 04   12.2    89.6    988    1                
1967-04-08 07   12.5    89.2    986    1                
1967-04-08 10   12.7    88.8    983    2                
1967-04-08 16   13.2    88.1    978    2                
1967-04-08 19   13.5    87.7    976    2                
1967-04-08 22   13.8    87.3    973    2                
1967-04-09 01   14.0    87.0    970    3                
1967-04-09 04   14.2    86.8    971    2                
1967-04-09 07   14.5    86.5    973    2                
1967-04-09 10   14.7    86.2    975    2                
1967-04-09 16   15.2    85.7    979    2                
1967-04-09 19   15.5    85.5    981    2                
1967-04-09 22   15.8    85.2    983    2                
1967-04-10 01   16.0    85.0    985    2                
1967-04-10 04   16.3    85.0    985    2                
1967-04-10 07   16.6    85.0    985    2                
1967-04-10 10   17.0    85.0    985    2                
1967-04-10 19   18.2    85.0    985    2                
1967-04-10 22   18.6    85.0    985    2                
1967-04-11 04   19.3    85.3    985    2                
1967-04-11 16   20.8    86.8    986    1                
1967-04-11 19   21.2    87.2    986    1                
1967-04-11 22   21.6    87.6    986    1                
1967-04-12 01   22.0    88.0    987    1                
1967-04-12 04   22.7    89.2    988    1                
1967-04-12 07   23.5    90.4    989    1                
1967-04-12 10   24.2    91.8    990    1                
1967-04-12 16   25.7    94.1    992    1                
1967-04-12 19   26.5    95.3    993    1                
1967-04-12 22   27.2    96.6    994    1                
1967-04-13 01   28.0    98.0    995    1                
1967-04-13 04   28.6    99.2    995    1                
1967-04-13 07   29.3   100.4    995    1                
1967-04-13 10   30.0   101.5    995    1                
1967-04-13 16   31.2   103.7    995    1                
1967-04-13 19   31.8   104.8    995    1                
1967-04-13 22   32.4   105.9    995    1                
1967-04-14 01   33.0   107.0    995    1                
1967-04-14 04   33.7   108.5    995    1                
1967-04-14 07   34.4   110.0    996                     
1967-04-14 10   35.0   111.5    996                     
1967-04-14 16   36.2   114.5    996                     
1967-04-14 19   36.8   116.0    996                     
1967-04-14 22   37.4   117.5    997                     
1967-04-15 01   38.0   119.0    997                     
Winds are 10-min average.

Tropical cyclone tracks developed by Michael Bath using data from the Bureau of Meteorology and Google Maps.


[Australian Severe Weather index] [Copyright Notice] [Email Contacts] [Search This Site] [Privacy Policy]
Document: tropical_cyclone_laura.htm Updated: 30 May 2013